Time;durP1;ratioP1;P1;durP2;ratioP2;P2;SDS_P1;SDS_P2;PMS_P1;PMS_P2;Temp;Humidity;BMP_temperature;BMP_pressure;BME280_temperature;BME280_humidity;BME280_pressure;Samples;Min_cycle;Max_cycle;Signal;HPM_P1;HPM_P2
2023/02/13 00:01:43;;;;;;;28.73;15.83;;;;;;;;;;4945233;28;20289;-72
2023/02/13 00:04:08;;;;;;;27.33;16.47;;;;;;;;;;4947733;28;20229;-72
2023/02/13 00:06:33;;;;;;;30.83;16.57;;;;;;;;;;4952067;28;20746;-72
2023/02/13 00:08:58;;;;;;;25.23;16.60;;;;;;;;;;4939041;28;20189;-72
2023/02/13 00:11:23;;;;;;;29.00;17.20;;;;;;;;;;4942725;28;20190;-72
2023/02/13 00:13:48;;;;;;;24.77;15.37;;;;;;;;;;4941486;28;20177;-72
2023/02/13 00:16:14;;;;;;;25.43;15.67;;;;;;;;;;4940275;28;20189;-71
2023/02/13 00:18:39;;;;;;;29.17;16.93;;;;;;;;;;4948229;28;20241;-72
2023/02/13 00:21:11;;;;;;;26.73;16.00;;;;;;;;;;4939482;28;20212;-72
2023/02/13 00:23:37;;;;;;;31.47;16.27;;;;;;;;;;4942412;28;20182;-71
2023/02/13 00:26:07;;;;;;;28.90;17.53;;;;;;;;;;4945426;28;20593;-72
2023/02/13 00:28:32;;;;;;;26.90;16.23;;;;;;;;;;4942541;28;20186;-72
2023/02/13 00:31:04;;;;;;;30.43;17.33;;;;;;;;;;4935494;28;20180;-72
2023/02/13 00:33:30;;;;;;;27.67;16.40;;;;;;;;;;4943849;28;20264;-72
2023/02/13 00:36:02;;;;;;;26.00;14.77;;;;;;;;;;4938730;28;20660;-72
2023/02/13 00:38:28;;;;;;;26.73;16.13;;;;;;;;;;4939922;28;20277;-72
2023/02/13 00:40:53;;;;;;;27.57;15.80;;;;;;;;;;4940105;28;20273;-72
2023/02/13 00:43:19;;;;;;;26.03;16.47;;;;;;;;;;4945324;28;20189;-71
2023/02/13 00:45:44;;;;;;;31.63;16.13;;;;;;;;;;4948438;28;20198;-71
2023/02/13 00:48:09;;;;;;;27.30;17.10;;;;;;;;;;4944984;28;20185;-71
2023/02/13 00:50:34;;;;;;;29.80;15.43;;;;;;;;;;4942304;28;20174;-71
2023/02/13 00:52:59;;;;;;;26.77;15.67;;;;;;;;;;4942356;28;20193;-70
2023/02/13 00:55:25;;;;;;;26.23;14.50;;;;;;;;;;4943409;28;20213;-71
2023/02/13 00:57:50;;;;;;;25.60;14.23;;;;;;;;;;4942962;28;20710;-71
2023/02/13 01:00:15;;;;;;;27.70;16.33;;;;;;;;;;4941485;28;20181;-73
2023/02/13 01:02:40;;;;;;;29.30;16.87;;;;;;;;;;4947064;28;20311;-72
2023/02/13 01:05:06;;;;;;;23.67;14.37;;;;;;;;;;4946352;28;20190;-71
2023/02/13 01:07:31;;;;;;;28.33;15.23;;;;;;;;;;4951288;28;20701;-71
2023/02/13 01:09:56;;;;;;;23.80;14.73;;;;;;;;;;4950162;28;20651;-71
2023/02/13 01:12:21;;;;;;;25.50;15.40;;;;;;;;;;4947495;28;20218;-70
2023/02/13 01:14:46;;;;;;;24.87;14.87;;;;;;;;;;4946113;28;20201;-70
2023/02/13 01:17:12;;;;;;;32.57;17.43;;;;;;;;;;4942509;28;20189;-71
2023/02/13 01:19:39;;;;;;;23.07;14.07;;;;;;;;;;4943705;28;20260;-71
2023/02/13 01:22:04;;;;;;;25.90;15.20;;;;;;;;;;4945142;28;20209;-71
2023/02/13 01:24:32;;;;;;;27.20;15.60;;;;;;;;;;4944194;28;20197;-71
2023/02/13 01:26:57;;;;;;;26.43;14.70;;;;;;;;;;4955454;28;20308;-71
2023/02/13 01:29:22;;;;;;;23.63;14.27;;;;;;;;;;4945724;28;20259;-71
2023/02/13 01:31:47;;;;;;;24.40;14.27;;;;;;;;;;4941348;28;20662;-71
2023/02/13 01:34:12;;;;;;;26.07;14.23;;;;;;;;;;4951560;28;20670;-72
2023/02/13 01:36:38;;;;;;;29.50;14.10;;;;;;;;;;4946224;28;20798;-72
2023/02/13 01:39:03;;;;;;;25.20;14.73;;;;;;;;;;4954620;28;20173;-72
2023/02/13 01:41:29;;;;;;;23.90;13.50;;;;;;;;;;4948233;28;20300;-71
2023/02/13 01:43:55;;;;;;;25.93;14.60;;;;;;;;;;4950805;28;20694;-71
2023/02/13 01:46:27;;;;;;;23.50;13.93;;;;;;;;;;4950173;28;20651;-72
2023/02/13 01:48:54;;;;;;;23.73;13.93;;;;;;;;;;4941174;28;20318;-71
2023/02/13 01:51:22;;;;;;;23.40;13.83;;;;;;;;;;4940779;28;20244;-71
2023/02/13 01:53:52;;;;;;;26.63;14.93;;;;;;;;;;4935969;28;20734;-71
2023/02/13 01:56:47;;;;;;;22.03;13.03;;;;;;;;;;4944949;28;20177;-71
2023/02/13 01:59:15;;;;;;;23.80;13.87;;;;;;;;;;4948084;28;20619;-72
2023/02/13 02:01:41;;;;;;;24.00;13.17;;;;;;;;;;4944554;28;20232;-71
2023/02/13 02:04:09;;;;;;;24.70;14.57;;;;;;;;;;4942217;28;20634;-71
2023/02/13 02:06:37;;;;;;;25.37;13.13;;;;;;;;;;4946738;28;20183;-71
2023/02/13 02:09:05;;;;;;;21.27;12.67;;;;;;;;;;4943120;28;20179;-72
2023/02/13 02:11:37;;;;;;;23.00;12.73;;;;;;;;;;4945666;28;20271;-72
2023/02/13 02:14:02;;;;;;;29.30;12.90;;;;;;;;;;4939589;28;20198;-72
2023/02/13 02:16:28;;;;;;;24.63;13.70;;;;;;;;;;4933798;28;20178;-70
2023/02/13 02:18:54;;;;;;;24.47;13.47;;;;;;;;;;4949024;28;20652;-71
2023/02/13 02:21:32;;;;;;;21.80;12.97;;;;;;;;;;4947456;29;20215;-71
2023/02/13 02:24:16;;;;;;;21.23;12.67;;;;;;;;;;4944704;28;20197;-70
2023/02/13 02:26:50;;;;;;;25.20;13.47;;;;;;;;;;4947412;28;20173;-71
2023/02/13 02:29:15;;;;;;;25.80;12.33;;;;;;;;;;4945456;28;20169;-71
2023/02/13 02:31:40;;;;;;;24.53;13.47;;;;;;;;;;4947783;28;20248;-71
2023/02/13 02:34:05;;;;;;;23.03;14.27;;;;;;;;;;4950012;28;20212;-71
2023/02/13 02:36:49;;;;;;;21.43;12.53;;;;;;;;;;4951251;28;20528;-71
2023/02/13 02:39:33;;;;;;;27.90;13.50;;;;;;;;;;4951475;28;20189;-71
2023/02/13 02:42:07;;;;;;;23.03;12.60;;;;;;;;;;4943631;28;20651;-71
2023/02/13 02:44:51;;;;;;;21.67;12.60;;;;;;;;;;4949351;28;20203;-71
2023/02/13 02:50:16;;;;;;;23.83;12.77;;;;;;;;;;4952732;28;20261;-72
2023/02/13 02:52:41;;;;;;;23.07;13.73;;;;;;;;;;4944167;28;20186;-72
2023/02/13 02:55:14;;;;;;;21.47;13.00;;;;;;;;;;4950541;28;20255;-72
2023/02/13 03:06:12;;;;;;;24.03;13.60;;;;;;;;;;4940953;28;20666;-72
2023/02/13 03:14:09;;;;;;;22.63;12.47;;;;;;;;;;4946258;28;20576;-72
2023/02/13 03:22:36;;;;;;;24.17;14.33;;;;;;;;;;4952165;28;20631;-71
2023/02/13 03:25:06;;;;;;;27.40;14.30;;;;;;;;;;4972295;28;20687;-71
2023/02/13 03:30:18;;;;;;;22.17;13.60;;;;;;;;;;4948733;28;20192;-71
2023/02/13 03:32:55;;;;;;;24.13;13.33;;;;;;;;;;4945447;28;20194;-71
2023/02/13 03:38:38;;;;;;;24.27;13.50;;;;;;;;;;4976561;28;20175;-74
2023/02/13 03:41:17;;;;;;;25.97;14.90;;;;;;;;;;4977408;28;20217;-75
2023/02/13 03:43:48;;;;;;;20.63;12.70;;;;;;;;;;4979549;28;20188;-74
2023/02/13 03:46:15;;;;;;;26.73;13.80;;;;;;;;;;4956302;28;20173;-75
2023/02/13 03:51:26;;;;;;;25.40;14.43;;;;;;;;;;4955927;28;20187;-75
2023/02/13 03:53:54;;;;;;;25.53;14.43;;;;;;;;;;4962025;28;20189;-75
2023/02/13 03:59:15;;;;;;;24.00;13.83;;;;;;;;;;4955846;28;20192;-74
2023/02/13 04:01:43;;;;;;;23.57;13.67;;;;;;;;;;4954912;28;20215;-75
2023/02/13 04:04:08;;;;;;;24.33;14.27;;;;;;;;;;4955560;28;20204;-74
2023/02/13 04:06:41;;;;;;;22.87;14.43;;;;;;;;;;4956566;28;20189;-74
2023/02/13 04:09:06;;;;;;;24.37;14.33;;;;;;;;;;4954877;28;20196;-74
2023/02/13 04:11:35;;;;;;;26.27;15.47;;;;;;;;;;4954556;28;20189;-73
2023/02/13 04:14:06;;;;;;;26.43;14.00;;;;;;;;;;4955823;28;20185;-74
2023/02/13 04:16:34;;;;;;;25.13;14.13;;;;;;;;;;4960861;28;20186;-73
2023/02/13 04:19:00;;;;;;;27.47;15.70;;;;;;;;;;4956609;28;20177;-74
2023/02/13 04:21:25;;;;;;;22.03;13.70;;;;;;;;;;4962291;28;20216;-74
2023/02/13 04:23:50;;;;;;;25.80;15.33;;;;;;;;;;4949233;28;20235;-74
2023/02/13 04:26:17;;;;;;;23.53;13.70;;;;;;;;;;4955638;28;20268;-74
2023/02/13 04:28:42;;;;;;;24.13;14.23;;;;;;;;;;4954419;28;20185;-73
2023/02/13 04:31:07;;;;;;;24.23;14.13;;;;;;;;;;4955789;28;20635;-74
2023/02/13 04:33:32;;;;;;;24.13;14.53;;;;;;;;;;4969181;28;20173;-74
2023/02/13 04:35:57;;;;;;;28.77;15.03;;;;;;;;;;4954795;28;20216;-74
2023/02/13 04:38:22;;;;;;;26.67;14.80;;;;;;;;;;4954061;28;20173;-72
2023/02/13 04:40:48;;;;;;;24.30;13.87;;;;;;;;;;4953340;28;20212;-72
2023/02/13 04:43:13;;;;;;;26.37;14.47;;;;;;;;;;4955642;28;20287;-74
2023/02/13 04:45:38;;;;;;;29.37;15.77;;;;;;;;;;4950796;28;20201;-75
2023/02/13 04:48:03;;;;;;;25.80;15.13;;;;;;;;;;4970041;28;20177;-74
2023/02/13 04:50:28;;;;;;;23.93;14.87;;;;;;;;;;4954993;28;20173;-74
2023/02/13 04:52:54;;;;;;;29.00;14.20;;;;;;;;;;4954259;28;20189;-75
2023/02/13 04:55:20;;;;;;;30.80;16.10;;;;;;;;;;4955987;28;20201;-72
2023/02/13 04:57:45;;;;;;;28.17;15.53;;;;;;;;;;4956373;28;20184;-72
2023/02/13 05:00:10;;;;;;;25.90;15.03;;;;;;;;;;4956080;28;20181;-72
2023/02/13 05:02:36;;;;;;;30.63;15.77;;;;;;;;;;4953524;28;20213;-75
2023/02/13 05:05:01;;;;;;;29.17;15.30;;;;;;;;;;4959233;28;20283;-75
2023/02/13 05:07:26;;;;;;;27.97;14.07;;;;;;;;;;4955802;28;20271;-72
2023/02/13 05:09:51;;;;;;;32.03;17.47;;;;;;;;;;4954409;28;20225;-72
2023/02/13 05:12:16;;;;;;;27.83;15.73;;;;;;;;;;4958230;28;20590;-74
2023/02/13 05:14:42;;;;;;;27.00;15.23;;;;;;;;;;4957287;28;20211;-75
2023/02/13 05:17:07;;;;;;;27.70;14.77;;;;;;;;;;4954018;28;20584;-74
2023/02/13 05:19:33;;;;;;;29.23;15.27;;;;;;;;;;4952731;28;20232;-74
2023/02/13 05:24:41;;;;;;;31.07;16.63;;;;;;;;;;4955565;29;20636;-73
2023/02/13 05:27:07;;;;;;;27.00;16.23;;;;;;;;;;4954911;28;20181;-73
2023/02/13 05:29:32;;;;;;;24.00;14.07;;;;;;;;;;4955479;29;20177;-75
2023/02/13 05:31:58;;;;;;;29.00;15.60;;;;;;;;;;4954350;29;20208;-73
2023/02/13 05:34:24;;;;;;;32.90;17.57;;;;;;;;;;4953815;28;20211;-73
2023/02/13 05:36:50;;;;;;;24.73;14.50;;;;;;;;;;4952292;29;20204;-76
2023/02/13 05:39:15;;;;;;;27.93;16.30;;;;;;;;;;4943735;28;20188;-75
2023/02/13 05:41:41;;;;;;;30.00;16.17;;;;;;;;;;4953623;28;20223;-73
2023/02/13 05:44:07;;;;;;;31.33;16.50;;;;;;;;;;4954670;28;20561;-73
2023/02/13 05:46:32;;;;;;;30.47;16.80;;;;;;;;;;4953205;29;20188;-75
2023/02/13 05:48:57;;;;;;;30.03;15.90;;;;;;;;;;4952903;28;20177;-75
2023/02/13 05:51:23;;;;;;;28.30;16.00;;;;;;;;;;4954357;28;20599;-74
2023/02/13 05:53:48;;;;;;;30.63;16.20;;;;;;;;;;4958987;28;20267;-74
2023/02/13 05:56:13;;;;;;;27.23;15.80;;;;;;;;;;4956822;28;20706;-74
2023/02/13 05:58:38;;;;;;;30.77;16.53;;;;;;;;;;4949507;28;20216;-75
2023/02/13 06:01:04;;;;;;;31.83;16.73;;;;;;;;;;4956650;28;20215;-74
2023/02/13 06:03:30;;;;;;;30.07;16.83;;;;;;;;;;4958589;28;20181;-74
2023/02/13 06:05:55;;;;;;;27.60;16.47;;;;;;;;;;4953710;28;20212;-75
2023/02/13 06:08:20;;;;;;;29.83;16.87;;;;;;;;;;4956023;28;20173;-74
2023/02/13 06:10:46;;;;;;;26.93;16.07;;;;;;;;;;4953736;28;20185;-74
2023/02/13 06:13:11;;;;;;;33.43;16.50;;;;;;;;;;4955767;28;20180;-74
2023/02/13 06:15:36;;;;;;;28.40;16.93;;;;;;;;;;4951595;28;20231;-74
2023/02/13 06:18:01;;;;;;;31.90;17.00;;;;;;;;;;4951846;28;20185;-74
2023/02/13 06:20:26;;;;;;;29.80;16.63;;;;;;;;;;4952141;28;20586;-74
2023/02/13 06:22:52;;;;;;;30.63;17.57;;;;;;;;;;4955571;28;20219;-74
2023/02/13 06:25:18;;;;;;;30.90;17.53;;;;;;;;;;4953327;28;20204;-74
2023/02/13 06:27:43;;;;;;;33.30;18.20;;;;;;;;;;4953007;28;20170;-74
2023/02/13 06:30:08;;;;;;;30.60;17.57;;;;;;;;;;4956500;28;20716;-74
2023/02/13 06:32:34;;;;;;;29.67;17.30;;;;;;;;;;4958714;28;20165;-74
2023/02/13 06:34:59;;;;;;;30.13;17.90;;;;;;;;;;4953964;28;20212;-74
2023/02/13 06:37:24;;;;;;;31.73;18.23;;;;;;;;;;4959349;28;20176;-73
2023/02/13 06:39:49;;;;;;;30.20;18.13;;;;;;;;;;4945058;28;20197;-74
2023/02/13 06:42:14;;;;;;;32.07;17.40;;;;;;;;;;4950424;29;20205;-74
2023/02/13 06:44:39;;;;;;;30.53;16.13;;;;;;;;;;4953527;28;20666;-74
2023/02/13 06:47:05;;;;;;;30.00;16.80;;;;;;;;;;4948695;28;20192;-74
2023/02/13 06:49:30;;;;;;;33.27;17.93;;;;;;;;;;4953515;28;20200;-75
2023/02/13 06:51:55;;;;;;;29.17;17.07;;;;;;;;;;4952740;28;20263;-74
2023/02/13 06:54:21;;;;;;;29.77;17.43;;;;;;;;;;4949650;28;20205;-74
2023/02/13 06:56:46;;;;;;;31.47;18.00;;;;;;;;;;4955761;28;20216;-75
2023/02/13 06:59:11;;;;;;;32.33;18.53;;;;;;;;;;4956675;28;20653;-74
2023/02/13 07:01:36;;;;;;;32.07;18.30;;;;;;;;;;4952244;28;20728;-73
2023/02/13 07:04:02;;;;;;;36.53;18.50;;;;;;;;;;4959884;28;20655;-73
2023/02/13 07:06:27;;;;;;;34.53;19.47;;;;;;;;;;4957707;28;20185;-73
2023/02/13 07:08:54;;;;;;;31.23;17.70;;;;;;;;;;4959727;28;20177;-74
2023/02/13 07:11:20;;;;;;;37.13;18.03;;;;;;;;;;4955785;28;20184;-73
2023/02/13 07:13:46;;;;;;;30.83;17.60;;;;;;;;;;4959913;28;20212;-73
2023/02/13 07:16:11;;;;;;;37.77;20.40;;;;;;;;;;4955312;28;20251;-73
2023/02/13 07:18:36;;;;;;;36.17;18.40;;;;;;;;;;4955986;28;20184;-74
2023/02/13 07:21:01;;;;;;;36.57;18.73;;;;;;;;;;4953453;28;20309;-73
2023/02/13 07:23:26;;;;;;;32.73;17.77;;;;;;;;;;4967946;28;20228;-73
2023/02/13 07:25:52;;;;;;;36.63;20.43;;;;;;;;;;4958751;28;20247;-73
2023/02/13 07:28:17;;;;;;;35.83;19.10;;;;;;;;;;4956962;28;20183;-74
2023/02/13 07:30:42;;;;;;;38.03;19.13;;;;;;;;;;4955349;28;20197;-74
2023/02/13 07:33:08;;;;;;;37.17;18.87;;;;;;;;;;4956003;28;20172;-74
2023/02/13 07:35:35;;;;;;;34.40;19.47;;;;;;;;;;4953588;28;20267;-74
2023/02/13 07:38:00;;;;;;;36.13;19.67;;;;;;;;;;4954643;28;20659;-74
2023/02/13 07:40:25;;;;;;;37.03;20.03;;;;;;;;;;4955161;28;20229;-74
2023/02/13 07:42:50;;;;;;;39.40;19.60;;;;;;;;;;4955104;28;20208;-74
2023/02/13 07:45:15;;;;;;;37.23;19.53;;;;;;;;;;4956266;28;20197;-74
2023/02/13 07:47:41;;;;;;;35.97;20.77;;;;;;;;;;4953891;28;20180;-74
2023/02/13 07:50:07;;;;;;;37.50;19.20;;;;;;;;;;4954593;28;20397;-75
2023/02/13 07:52:32;;;;;;;38.87;19.33;;;;;;;;;;4955768;29;20181;-74
2023/02/13 07:54:57;;;;;;;36.73;19.93;;;;;;;;;;4955037;29;20298;-75
2023/02/13 07:57:22;;;;;;;39.63;20.67;;;;;;;;;;4957259;29;20599;-74
2023/02/13 07:59:48;;;;;;;47.63;21.67;;;;;;;;;;4939143;29;20722;-74
2023/02/13 08:02:14;;;;;;;41.30;22.10;;;;;;;;;;4955146;28;20201;-74
2023/02/13 08:04:40;;;;;;;39.33;20.57;;;;;;;;;;4956893;28;20575;-74
2023/02/13 08:07:05;;;;;;;40.20;20.80;;;;;;;;;;4955901;28;20979;-74
2023/02/13 08:12:32;;;;;;;36.73;20.17;;;;;;;;;;4991863;28;20196;-74
2023/02/13 08:14:58;;;;;;;42.33;22.00;;;;;;;;;;4960774;28;20244;-74
2023/02/13 08:17:23;;;;;;;40.80;21.63;;;;;;;;;;4949903;28;20220;-75
2023/02/13 08:19:48;;;;;;;40.47;20.57;;;;;;;;;;4948280;28;20217;-75
2023/02/13 08:22:13;;;;;;;41.63;22.37;;;;;;;;;;4952955;28;20209;-75
2023/02/13 08:24:38;;;;;;;34.37;19.73;;;;;;;;;;4953930;28;20252;-74
2023/02/13 08:27:04;;;;;;;35.23;19.53;;;;;;;;;;4951837;28;20180;-75
2023/02/13 08:29:29;;;;;;;32.00;19.67;;;;;;;;;;4956340;29;20636;-75
2023/02/13 08:31:54;;;;;;;30.33;19.27;;;;;;;;;;4952126;28;20181;-75
2023/02/13 08:34:19;;;;;;;34.33;18.73;;;;;;;;;;4953361;28;20208;-75
2023/02/13 08:36:44;;;;;;;31.77;19.53;;;;;;;;;;4953387;28;20272;-76
2023/02/13 08:39:10;;;;;;;28.53;18.30;;;;;;;;;;4952358;28;20569;-76
2023/02/13 08:41:35;;;;;;;26.17;17.53;;;;;;;;;;4954927;28;20231;-75
2023/02/13 08:44:00;;;;;;;28.00;18.73;;;;;;;;;;4954185;28;20264;-74
2023/02/13 08:46:25;;;;;;;26.80;16.13;;;;;;;;;;4954744;28;20181;-75
2023/02/13 08:48:51;;;;;;;29.40;17.40;;;;;;;;;;4954840;28;20189;-74
2023/02/13 08:51:16;;;;;;;30.40;19.17;;;;;;;;;;4954643;28;20173;-74
2023/02/13 08:53:41;;;;;;;28.53;18.60;;;;;;;;;;4954326;28;20181;-74
2023/02/13 08:56:07;;;;;;;26.90;17.02;;;;;;;;;;4952864;28;20200;-75
2023/02/13 08:58:32;;;;;;;24.15;16.27;;;;;;;;;;4950483;29;20181;-75
2023/02/13 09:00:57;;;;;;;26.55;17.95;;;;;;;;;;4954529;29;20204;-75
2023/02/13 09:03:22;;;;;;;28.70;17.88;;;;;;;;;;4970697;28;20218;-77
2023/02/13 09:05:48;;;;;;;24.73;15.90;;;;;;;;;;4951072;28;20637;-76
2023/02/13 09:08:13;;;;;;;26.08;16.70;;;;;;;;;;4952359;28;20701;-76
2023/02/13 09:10:39;;;;;;;26.50;18.17;;;;;;;;;;4954613;28;20168;-76
2023/02/13 09:13:04;;;;;;;27.20;17.53;;;;;;;;;;4954273;29;20189;-76
2023/02/13 09:15:30;;;;;;;23.30;17.37;;;;;;;;;;4953160;28;20197;-76
2023/02/13 09:17:55;;;;;;;26.67;16.38;;;;;;;;;;4946990;28;20185;-77
2023/02/13 09:20:20;;;;;;;25.67;17.30;;;;;;;;;;4940855;28;20251;-76
2023/02/13 09:22:45;;;;;;;26.02;17.48;;;;;;;;;;4952412;29;20212;-76
2023/02/13 09:25:12;;;;;;;26.50;16.45;;;;;;;;;;4952218;28;20749;-76
2023/02/13 09:27:40;;;;;;;26.55;17.10;;;;;;;;;;4953498;28;20174;-76
2023/02/13 09:30:06;;;;;;;27.25;16.52;;;;;;;;;;4953169;29;20221;-75
2023/02/13 09:32:32;;;;;;;36.80;17.70;;;;;;;;;;4954293;28;20709;-77
2023/02/13 09:34:58;;;;;;;24.60;17.23;;;;;;;;;;4965097;23;20237;-71
2023/02/13 09:37:24;;;;;;;24.27;16.45;;;;;;;;;;4971530;28;20180;-71
2023/02/13 09:39:49;;;;;;;27.10;17.53;;;;;;;;;;4966377;28;20305;-71
2023/02/13 09:42:17;;;;;;;29.20;17.80;;;;;;;;;;4974268;28;20199;-71
2023/02/13 09:44:44;;;;;;;26.67;17.08;;;;;;;;;;4972389;28;20226;-71
2023/02/13 09:47:14;;;;;;;25.98;17.15;;;;;;;;;;4972462;28;20184;-71
2023/02/13 09:49:42;;;;;;;26.63;17.07;;;;;;;;;;4970661;28;20185;-71
2023/02/13 09:52:08;;;;;;;27.55;17.23;;;;;;;;;;4967020;28;20188;-72
2023/02/13 09:54:34;;;;;;;26.38;16.52;;;;;;;;;;4965571;28;20243;-71
2023/02/13 09:57:01;;;;;;;25.13;16.30;;;;;;;;;;4969438;28;20192;-71
2023/02/13 09:59:32;;;;;;;25.58;17.38;;;;;;;;;;4971839;28;20180;-71
2023/02/13 10:02:00;;;;;;;25.98;17.92;;;;;;;;;;4971450;28;20670;-71
2023/02/13 10:04:25;;;;;;;21.92;16.05;;;;;;;;;;4971762;28;20180;-71
2023/02/13 10:07:13;;;;;;;26.27;16.90;;;;;;;;;;4973591;28;20235;-71
2023/02/13 10:09:45;;;;;;;26.77;16.40;;;;;;;;;;4962958;28;20681;-71
2023/02/13 10:12:15;;;;;;;25.38;16.35;;;;;;;;;;4971812;28;20295;-71
2023/02/13 10:14:43;;;;;;;25.10;15.95;;;;;;;;;;4968842;28;20290;-71
2023/02/13 10:17:32;;;;;;;25.02;15.60;;;;;;;;;;4968345;28;20192;-71
2023/02/13 10:20:29;;;;;;;25.95;17.02;;;;;;;;;;4973435;28;20211;-71
2023/02/13 10:22:58;;;;;;;22.73;16.70;;;;;;;;;;4970393;28;20224;-72
2023/02/13 10:25:24;;;;;;;18.77;14.25;;;;;;;;;;4971897;28;20682;-72
2023/02/13 10:27:54;;;;;;;20.13;14.43;;;;;;;;;;4969628;28;20250;-70
2023/02/13 10:30:21;;;;;;;24.95;16.83;;;;;;;;;;4965241;28;20669;-72
2023/02/13 10:32:50;;;;;;;24.67;17.60;;;;;;;;;;4971564;28;20195;-73
2023/02/13 10:35:15;;;;;;;22.40;15.65;;;;;;;;;;4964984;28;20673;-72
2023/02/13 10:37:41;;;;;;;21.70;15.38;;;;;;;;;;4971893;28;20303;-71
2023/02/13 10:40:09;;;;;;;22.02;15.70;;;;;;;;;;4965841;28;20199;-71
2023/02/13 10:42:42;;;;;;;20.02;14.57;;;;;;;;;;4971757;28;20247;-70
2023/02/13 10:45:08;;;;;;;19.60;13.05;;;;;;;;;;4971462;28;20213;-73
2023/02/13 10:47:52;;;;;;;19.90;13.50;;;;;;;;;;4971102;28;20179;-73
2023/02/13 10:50:20;;;;;;;21.33;14.73;;;;;;;;;;4971295;28;20430;-71
2023/02/13 10:52:45;;;;;;;21.33;14.35;;;;;;;;;;4971752;28;20191;-72
2023/02/13 10:55:21;;;;;;;20.20;14.27;;;;;;;;;;4972281;28;20192;-71
2023/02/13 10:58:01;;;;;;;19.80;13.57;;;;;;;;;;4965513;28;20566;-71
2023/02/13 11:00:31;;;;;;;22.02;14.73;;;;;;;;;;4966641;28;20732;-71
2023/02/13 11:02:58;;;;;;;18.83;13.05;;;;;;;;;;4972456;28;20214;-71
2023/02/13 11:05:36;;;;;;;23.10;13.75;;;;;;;;;;4973358;28;20200;-71
2023/02/13 11:08:02;;;;;;;19.58;13.02;;;;;;;;;;4965563;28;20188;-71
2023/02/13 11:10:27;;;;;;;24.02;15.95;;;;;;;;;;4971549;28;20209;-71
2023/02/13 11:12:52;;;;;;;21.33;13.38;;;;;;;;;;4963504;28;20638;-71
2023/02/13 11:15:27;;;;;;;24.23;14.60;;;;;;;;;;4970509;28;20239;-71
2023/02/13 11:17:53;;;;;;;19.52;13.57;;;;;;;;;;4971812;28;20176;-71
2023/02/13 11:20:22;;;;;;;20.92;13.90;;;;;;;;;;4967457;28;20271;-71
2023/02/13 11:22:47;;;;;;;19.45;14.25;;;;;;;;;;4968652;28;20304;-71
2023/02/13 11:25:21;;;;;;;19.17;13.15;;;;;;;;;;4969551;28;20283;-71
2023/02/13 11:27:48;;;;;;;18.23;13.30;;;;;;;;;;4969387;28;20186;-71
2023/02/13 11:30:22;;;;;;;20.55;14.23;;;;;;;;;;4968697;28;20188;-71
2023/02/13 11:32:58;;;;;;;18.40;13.20;;;;;;;;;;4968410;28;20184;-71
2023/02/13 11:35:35;;;;;;;16.75;11.98;;;;;;;;;;4964102;28;20216;-71
2023/02/13 11:38:09;;;;;;;19.25;13.93;;;;;;;;;;4968415;28;20251;-71
2023/02/13 11:40:35;;;;;;;18.65;13.35;;;;;;;;;;4966525;28;20207;-71
2023/02/13 11:43:00;;;;;;;22.13;14.50;;;;;;;;;;4971072;28;20291;-71
2023/02/13 11:45:25;;;;;;;18.52;13.07;;;;;;;;;;4975208;28;20192;-71
2023/02/13 11:47:52;;;;;;;16.88;13.18;;;;;;;;;;4974283;28;20718;-71
2023/02/13 11:50:34;;;;;;;18.25;13.68;;;;;;;;;;4975029;28;20662;-71
2023/02/13 11:53:02;;;;;;;17.85;12.40;;;;;;;;;;4974021;28;20247;-71
2023/02/13 11:55:37;;;;;;;15.80;12.57;;;;;;;;;;4975121;28;20556;-71
2023/02/13 11:58:20;;;;;;;17.75;12.70;;;;;;;;;;4972339;28;20246;-71
2023/02/13 12:00:45;;;;;;;18.42;13.73;;;;;;;;;;4974990;28;20191;-71
2023/02/13 12:03:19;;;;;;;16.17;12.63;;;;;;;;;;4972738;28;20205;-71
2023/02/13 12:05:58;;;;;;;18.35;13.60;;;;;;;;;;4975210;28;20595;-71
2023/02/13 12:08:23;;;;;;;18.77;12.90;;;;;;;;;;4970136;28;20204;-71
2023/02/13 12:10:48;;;;;;;20.00;14.35;;;;;;;;;;4974273;28;20266;-71
2023/02/13 12:13:19;;;;;;;20.40;13.25;;;;;;;;;;4973631;28;20628;-71
2023/02/13 12:15:45;;;;;;;16.20;12.00;;;;;;;;;;4970246;28;20211;-71
2023/02/13 12:18:20;;;;;;;21.70;13.27;;;;;;;;;;4967984;28;20208;-71
2023/02/13 12:21:08;;;;;;;17.58;12.30;;;;;;;;;;4974156;28;20558;-71
2023/02/13 12:23:49;;;;;;;16.77;12.45;;;;;;;;;;4969614;28;20693;-71
2023/02/13 12:26:22;;;;;;;16.85;11.75;;;;;;;;;;4974923;28;20204;-71
2023/02/13 12:28:54;;;;;;;15.65;11.32;;;;;;;;;;4972528;28;20176;-72
2023/02/13 12:31:21;;;;;;;15.75;11.52;;;;;;;;;;4970370;28;20650;-71
2023/02/13 12:34:14;;;;;;;16.33;11.55;;;;;;;;;;4967132;28;20662;-71
2023/02/13 12:36:45;;;;;;;16.27;10.65;;;;;;;;;;4971978;28;20204;-72
2023/02/13 12:39:20;;;;;;;16.58;12.80;;;;;;;;;;4967043;28;20240;-72
2023/02/13 12:41:50;;;;;;;16.15;11.75;;;;;;;;;;4967822;28;20696;-71
2023/02/13 12:44:25;;;;;;;18.05;13.35;;;;;;;;;;4970891;28;20180;-72
2023/02/13 12:46:57;;;;;;;15.30;11.30;;;;;;;;;;4968562;28;20191;-71
2023/02/13 12:49:41;;;;;;;14.80;11.30;;;;;;;;;;4972278;28;20637;-71
2023/02/13 12:52:12;;;;;;;18.67;12.93;;;;;;;;;;4962982;28;20410;-71
2023/02/13 12:54:47;;;;;;;17.33;11.27;;;;;;;;;;4971829;28;20208;-71
2023/02/13 12:57:21;;;;;;;17.45;12.18;;;;;;;;;;4972897;28;20180;-71
2023/02/13 13:00:13;;;;;;;14.45;11.30;;;;;;;;;;4972713;28;20198;-71
2023/02/13 13:02:58;;;;;;;15.50;11.63;;;;;;;;;;4964252;28;20212;-71
2023/02/13 13:05:41;;;;;;;16.23;11.25;;;;;;;;;;4973088;28;20200;-71
2023/02/13 13:08:27;;;;;;;18.33;11.93;;;;;;;;;;4965931;28;20622;-71
2023/02/13 13:11:01;;;;;;;18.23;12.18;;;;;;;;;;4969348;28;20203;-71
2023/02/13 13:13:32;;;;;;;17.75;12.82;;;;;;;;;;4973007;28;20179;-71
2023/02/13 13:16:04;;;;;;;15.32;11.88;;;;;;;;;;4972857;28;20258;-71
2023/02/13 13:18:35;;;;;;;17.33;11.93;;;;;;;;;;4966366;28;20240;-71
2023/02/13 13:21:04;;;;;;;16.15;10.90;;;;;;;;;;4965053;28;20184;-72
2023/02/13 13:23:59;;;;;;;19.17;12.25;;;;;;;;;;4962688;28;20711;-71
2023/02/13 13:26:36;;;;;;;16.30;11.88;;;;;;;;;;4978228;28;20231;-72
2023/02/13 13:29:03;;;;;;;17.88;12.02;;;;;;;;;;4968174;28;20184;-71
2023/02/13 13:31:29;;;;;;;19.75;12.27;;;;;;;;;;4973165;28;20653;-71
2023/02/13 13:33:57;;;;;;;15.45;11.57;;;;;;;;;;4972500;28;20216;-71
2023/02/13 13:36:33;;;;;;;15.18;11.30;;;;;;;;;;4966772;28;20220;-71
2023/02/13 13:39:13;;;;;;;15.30;11.32;;;;;;;;;;4968789;28;20183;-72
2023/02/13 13:42:01;;;;;;;13.32;9.80;;;;;;;;;;4966484;28;20175;-71
2023/02/13 13:44:43;;;;;;;11.98;10.32;;;;;;;;;;4973574;28;20717;-72
2023/02/13 13:47:14;;;;;;;15.52;11.13;;;;;;;;;;4965391;28;20185;-71
2023/02/13 13:49:49;;;;;;;15.52;10.57;;;;;;;;;;4961693;28;20576;-71
2023/02/13 13:52:27;;;;;;;16.67;11.93;;;;;;;;;;4971028;28;20230;-71
2023/02/13 13:54:53;;;;;;;19.08;12.40;;;;;;;;;;4971045;28;20215;-72
2023/02/13 13:57:22;;;;;;;19.67;12.70;;;;;;;;;;4970850;28;20180;-71
2023/02/13 13:59:50;;;;;;;16.35;11.35;;;;;;;;;;4969585;28;20192;-71
2023/02/13 14:02:15;;;;;;;14.40;10.90;;;;;;;;;;4969360;28;20272;-71
2023/02/13 14:04:58;;;;;;;16.60;11.37;;;;;;;;;;4970185;28;20200;-71
2023/02/13 14:07:23;;;;;;;14.45;10.52;;;;;;;;;;4970780;28;20442;-71
2023/02/13 14:09:49;;;;;;;14.43;10.77;;;;;;;;;;4971818;28;20180;-71
2023/02/13 14:12:23;;;;;;;16.20;11.85;;;;;;;;;;4972468;28;20642;-71
2023/02/13 14:14:49;;;;;;;15.02;10.32;;;;;;;;;;4971929;28;20633;-71
2023/02/13 14:17:15;;;;;;;14.15;11.00;;;;;;;;;;4971336;28;20172;-71
2023/02/13 14:19:42;;;;;;;14.55;11.27;;;;;;;;;;4970299;28;20235;-72
2023/02/13 14:22:26;;;;;;;15.70;11.20;;;;;;;;;;4972537;28;20206;-71
2023/02/13 14:24:56;;;;;;;16.02;10.85;;;;;;;;;;4970048;28;20196;-71
2023/02/13 14:27:21;;;;;;;16.85;11.82;;;;;;;;;;4971112;28;20176;-72
2023/02/13 14:29:47;;;;;;;15.18;10.90;;;;;;;;;;4961884;28;20199;-71
2023/02/13 14:32:17;;;;;;;15.50;11.20;;;;;;;;;;4972416;28;20267;-71
2023/02/13 14:34:48;;;;;;;15.55;11.57;;;;;;;;;;4964290;28;20207;-72
2023/02/13 14:37:28;;;;;;;17.08;11.27;;;;;;;;;;4967953;28;20650;-71
2023/02/13 14:40:09;;;;;;;16.30;11.90;;;;;;;;;;4964218;28;20227;-71
2023/02/13 14:42:35;;;;;;;13.60;10.55;;;;;;;;;;4960327;28;20490;-72
2023/02/13 14:45:03;;;;;;;14.45;10.52;;;;;;;;;;4964525;28;20196;-71
2023/02/13 14:47:34;;;;;;;15.25;11.25;;;;;;;;;;4971213;28;20180;-71
2023/02/13 14:50:00;;;;;;;17.25;11.48;;;;;;;;;;4970329;28;20251;-71
2023/02/13 14:52:28;;;;;;;13.85;10.20;;;;;;;;;;4972895;28;20283;-71
2023/02/13 14:54:57;;;;;;;14.95;10.75;;;;;;;;;;4964946;28;20208;-71
2023/02/13 14:57:26;;;;;;;16.20;11.20;;;;;;;;;;4963084;28;20670;-71
2023/02/13 14:59:59;;;;;;;17.00;11.38;;;;;;;;;;4970627;28;20223;-71
2023/02/13 15:02:27;;;;;;;16.67;12.30;;;;;;;;;;4970917;28;20204;-71
2023/02/13 15:05:13;;;;;;;16.38;11.80;;;;;;;;;;4971078;28;20228;-71